UAL3910 KMKE-KORD
Flight info
| Callsign | UAL3910 |
|---|---|
| Flight time | 0h 26m |
| Altitude | 9000 |
| Route | ZANDI MADII7 |
| Aircraft | B738/M-SDE2E3FGHIRWXY/LB1 |
Departure
| Time | 2026-05-09 12:37 |
|---|---|
| Airport | General Mitchell International Airport (KMKE) |
Arrival
| Time | 2026-05-09 13:04 |
|---|---|
| Airport | Chicago O'Hare International Airport (KORD) |
| Time | Latitude | Longitude | Altitude | Speed | Heading |
|---|---|---|---|---|---|
| 2026-05-09 12:19 | 42.94920 | -87.90097 | 681 ft | 0 kts | 333° |
| 2026-05-09 12:28 | 42.94918 | -87.90096 | 684 ft | 1 kts | 333° |
| 2026-05-09 12:28 | 42.94904 | -87.90085 | 679 ft | 3 kts | 313° |
| 2026-05-09 12:28 | 42.94896 | -87.90069 | 682 ft | 3 kts | 251° |
| 2026-05-09 12:28 | 42.94906 | -87.90053 | 679 ft | 3 kts | 215° |
| 2026-05-09 12:29 | 42.94920 | -87.90037 | 679 ft | 3 kts | 250° |
| 2026-05-09 12:29 | 42.94922 | -87.90029 | 681 ft | 2 kts | 316° |
| 2026-05-09 12:29 | 42.94908 | -87.90013 | 682 ft | 3 kts | 346° |
| 2026-05-09 12:29 | 42.94889 | -87.90013 | 683 ft | 3 kts | 15° |
| 2026-05-09 12:30 | 42.94872 | -87.90018 | 679 ft | 3 kts | 337° |
| 2026-05-09 12:30 | 42.94867 | -87.90016 | 679 ft | 0 kts | 299° |
| 2026-05-09 12:33 | 42.94869 | -87.90019 | 679 ft | 2 kts | 302° |
| 2026-05-09 12:33 | 42.94914 | -87.90013 | 685 ft | 10 kts | 37° |
| 2026-05-09 12:33 | 42.94962 | -87.89930 | 683 ft | 12 kts | 63° |
| 2026-05-09 12:34 | 42.94989 | -87.89822 | 687 ft | 13 kts | 78° |
| 2026-05-09 12:34 | 42.94976 | -87.89700 | 680 ft | 13 kts | 98° |
| 2026-05-09 12:34 | 42.95001 | -87.89587 | 682 ft | 13 kts | 27° |
| 2026-05-09 12:34 | 42.95094 | -87.89566 | 684 ft | 14 kts | 6° |
| 2026-05-09 12:35 | 42.95197 | -87.89549 | 685 ft | 16 kts | 7° |
| 2026-05-09 12:35 | 42.95332 | -87.89526 | 683 ft | 21 kts | 7° |
| 2026-05-09 12:35 | 42.95483 | -87.89500 | 684 ft | 22 kts | 7° |
| 2026-05-09 12:35 | 42.95628 | -87.89476 | 685 ft | 21 kts | 7° |
| 2026-05-09 12:36 | 42.95737 | -87.89433 | 686 ft | 14 kts | 53° |
| 2026-05-09 12:36 | 42.95721 | -87.89315 | 683 ft | 14 kts | 150° |
| 2026-05-09 12:36 | 42.95683 | -87.89314 | 682 ft | 0 kts | 188° |
| 2026-05-09 12:36 | 42.95675 | -87.89315 | 685 ft | 6 kts | 188° |
| 2026-05-09 12:37 | 42.95353 | -87.89373 | 682 ft | 92 kts | 187° |
| 2026-05-09 12:37 | 42.94469 | -87.89504 | 811 ft | 152 kts | 188° |
| 2026-05-09 12:37 | 42.93424 | -87.89630 | 1692 ft | 153 kts | 195° |
| 2026-05-09 12:37 | 42.92357 | -87.89933 | 2520 ft | 160 kts | 204° |
| 2026-05-09 12:38 | 42.91219 | -87.90341 | 3190 ft | 185 kts | 202° |
| 2026-05-09 12:38 | 42.89852 | -87.90824 | 3531 ft | 219 kts | 200° |
| 2026-05-09 12:38 | 42.88265 | -87.91354 | 3784 ft | 249 kts | 201° |
| 2026-05-09 12:38 | 42.86749 | -87.92458 | 4384 ft | 250 kts | 224° |
| 2026-05-09 12:39 | 42.85417 | -87.93988 | 5522 ft | 251 kts | 225° |
| 2026-05-09 12:39 | 42.84073 | -87.95505 | 6725 ft | 249 kts | 225° |
| 2026-05-09 12:39 | 42.82714 | -87.97025 | 7787 ft | 255 kts | 225° |
| 2026-05-09 12:39 | 42.81336 | -87.98549 | 8660 ft | 259 kts | 225° |
| 2026-05-09 12:40 | 42.79924 | -88.00096 | 8994 ft | 261 kts | 225° |
| 2026-05-09 12:40 | 42.78504 | -88.01641 | 9019 ft | 261 kts | 225° |
| 2026-05-09 12:40 | 42.77080 | -88.03185 | 9029 ft | 262 kts | 225° |
| 2026-05-09 12:40 | 42.75667 | -88.04711 | 9025 ft | 263 kts | 225° |
| 2026-05-09 12:41 | 42.74230 | -88.06259 | 9025 ft | 263 kts | 225° |
| 2026-05-09 12:41 | 42.72790 | -88.07808 | 9024 ft | 263 kts | 224° |
| 2026-05-09 12:41 | 42.71350 | -88.09355 | 9010 ft | 264 kts | 225° |
| 2026-05-09 12:41 | 42.69908 | -88.10903 | 9014 ft | 264 kts | 225° |
| 2026-05-09 12:42 | 42.68464 | -88.12452 | 9023 ft | 264 kts | 225° |
| 2026-05-09 12:42 | 42.67032 | -88.13986 | 9041 ft | 265 kts | 225° |
| 2026-05-09 12:42 | 42.65586 | -88.15535 | 9034 ft | 265 kts | 225° |
| 2026-05-09 12:42 | 42.64133 | -88.17090 | 9035 ft | 265 kts | 225° |
| 2026-05-09 12:43 | 42.62678 | -88.18647 | 9034 ft | 265 kts | 225° |
| 2026-05-09 12:43 | 42.61227 | -88.20199 | 9035 ft | 265 kts | 225° |
| 2026-05-09 12:43 | 42.59776 | -88.21750 | 9019 ft | 265 kts | 224° |
| 2026-05-09 12:43 | 42.58342 | -88.23280 | 9031 ft | 264 kts | 224° |
| 2026-05-09 12:44 | 42.56896 | -88.24822 | 9026 ft | 263 kts | 224° |
| 2026-05-09 12:44 | 42.55447 | -88.26364 | 9029 ft | 263 kts | 224° |
| 2026-05-09 12:44 | 42.54022 | -88.27862 | 9032 ft | 264 kts | 221° |
| 2026-05-09 12:44 | 42.52286 | -88.28835 | 9034 ft | 278 kts | 199° |
| 2026-05-09 12:45 | 42.50342 | -88.29150 | 9031 ft | 283 kts | 192° |
| 2026-05-09 12:45 | 42.48371 | -88.29354 | 9031 ft | 283 kts | 192° |
| 2026-05-09 12:45 | 42.46425 | -88.29546 | 9040 ft | 283 kts | 192° |
| 2026-05-09 12:45 | 42.44445 | -88.29751 | 9034 ft | 284 kts | 192° |
| 2026-05-09 12:46 | 42.42472 | -88.29963 | 9034 ft | 284 kts | 192° |
| 2026-05-09 12:46 | 42.40524 | -88.30180 | 9037 ft | 284 kts | 192° |
| 2026-05-09 12:46 | 42.38552 | -88.30404 | 9002 ft | 284 kts | 192° |
| 2026-05-09 12:46 | 42.36579 | -88.30630 | 9031 ft | 283 kts | 192° |
| 2026-05-09 12:47 | 42.34614 | -88.30856 | 9030 ft | 283 kts | 192° |
| 2026-05-09 12:47 | 42.32647 | -88.31082 | 9033 ft | 283 kts | 193° |
| 2026-05-09 12:47 | 42.30654 | -88.30928 | 9015 ft | 298 kts | 170° |
| 2026-05-09 12:47 | 42.28859 | -88.29491 | 9037 ft | 313 kts | 141° |
| 2026-05-09 12:48 | 42.27394 | -88.27269 | 9042 ft | 317 kts | 134° |
| 2026-05-09 12:48 | 42.25993 | -88.24964 | 9030 ft | 317 kts | 134° |
| 2026-05-09 12:48 | 42.24587 | -88.22659 | 9026 ft | 317 kts | 134° |
| 2026-05-09 12:48 | 42.23172 | -88.20379 | 9037 ft | 317 kts | 135° |
| 2026-05-09 12:49 | 42.21744 | -88.18103 | 9037 ft | 317 kts | 135° |
| 2026-05-09 12:49 | 42.20318 | -88.15863 | 9029 ft | 316 kts | 138° |
| 2026-05-09 12:49 | 42.18585 | -88.14169 | 9046 ft | 303 kts | 162° |
| 2026-05-09 12:49 | 42.16631 | -88.13107 | 9030 ft | 301 kts | 166° |
| 2026-05-09 12:50 | 42.14669 | -88.12123 | 9045 ft | 300 kts | 166° |
| 2026-05-09 12:50 | 42.12721 | -88.11158 | 9042 ft | 300 kts | 167° |
| 2026-05-09 12:50 | 42.10752 | -88.10177 | 9046 ft | 300 kts | 166° |
| 2026-05-09 12:50 | 42.08795 | -88.09193 | 9052 ft | 300 kts | 166° |
| 2026-05-09 12:51 | 42.06839 | -88.08204 | 9046 ft | 300 kts | 166° |
| 2026-05-09 12:51 | 42.04898 | -88.07219 | 9051 ft | 301 kts | 166° |
| 2026-05-09 12:51 | 42.02937 | -88.06222 | 9054 ft | 301 kts | 166° |
| 2026-05-09 12:51 | 42.00973 | -88.05222 | 9054 ft | 302 kts | 166° |
| 2026-05-09 12:52 | 41.99007 | -88.04221 | 9046 ft | 302 kts | 166° |
| 2026-05-09 12:52 | 41.97045 | -88.03222 | 9052 ft | 301 kts | 166° |
| 2026-05-09 12:52 | 41.95083 | -88.02223 | 9056 ft | 301 kts | 166° |
| 2026-05-09 12:52 | 41.93121 | -88.01225 | 9049 ft | 301 kts | 166° |
| 2026-05-09 12:53 | 41.91166 | -88.00207 | 9054 ft | 303 kts | 161° |
| 2026-05-09 12:53 | 41.89471 | -87.98508 | 9052 ft | 317 kts | 133° |
| 2026-05-09 12:53 | 41.88494 | -87.95873 | 8844 ft | 318 kts | 103° |
| 2026-05-09 12:53 | 41.88346 | -87.92929 | 8388 ft | 315 kts | 89° |
| 2026-05-09 12:54 | 41.88383 | -87.89978 | 7741 ft | 318 kts | 88° |
| 2026-05-09 12:54 | 41.88420 | -87.87014 | 7216 ft | 316 kts | 89° |
| 2026-05-09 12:54 | 41.88435 | -87.84108 | 6733 ft | 313 kts | 89° |
| 2026-05-09 12:54 | 41.88438 | -87.81189 | 6260 ft | 311 kts | 90° |
| 2026-05-09 12:55 | 41.88436 | -87.78294 | 5758 ft | 308 kts | 90° |
| 2026-05-09 12:55 | 41.88433 | -87.75440 | 5311 ft | 303 kts | 90° |
| 2026-05-09 12:55 | 41.88430 | -87.72632 | 4861 ft | 299 kts | 90° |
| 2026-05-09 12:55 | 41.88427 | -87.69905 | 4573 ft | 288 kts | 91° |
| 2026-05-09 12:56 | 41.88424 | -87.67287 | 4439 ft | 272 kts | 91° |
| 2026-05-09 12:56 | 41.88420 | -87.64812 | 4297 ft | 257 kts | 91° |
| 2026-05-09 12:56 | 41.88499 | -87.62413 | 4085 ft | 259 kts | 77° |
| 2026-05-09 12:56 | 41.89273 | -87.60325 | 4078 ft | 250 kts | 43° |
| 2026-05-09 12:57 | 41.90669 | -87.59092 | 4077 ft | 235 kts | 9° |
| 2026-05-09 12:57 | 41.92260 | -87.58809 | 4071 ft | 228 kts | 350° |
| 2026-05-09 12:57 | 41.93787 | -87.59194 | 4075 ft | 221 kts | 337° |
| 2026-05-09 12:57 | 41.95273 | -87.59747 | 4070 ft | 222 kts | 336° |
| 2026-05-09 12:58 | 41.96738 | -87.60319 | 4078 ft | 221 kts | 336° |
| 2026-05-09 12:58 | 41.98034 | -87.61254 | 4042 ft | 205 kts | 306° |
| 2026-05-09 12:58 | 41.98528 | -87.62956 | 4068 ft | 197 kts | 275° |
| 2026-05-09 12:58 | 41.98681 | -87.64802 | 4047 ft | 201 kts | 276° |
| 2026-05-09 12:59 | 41.98817 | -87.66681 | 3883 ft | 200 kts | 272° |
| 2026-05-09 12:59 | 41.98856 | -87.68532 | 3639 ft | 193 kts | 270° |
| 2026-05-09 12:59 | 41.98857 | -87.70292 | 3391 ft | 182 kts | 269° |
| 2026-05-09 12:59 | 41.98851 | -87.71925 | 3143 ft | 175 kts | 272° |
| 2026-05-09 13:00 | 41.98848 | -87.73543 | 2926 ft | 172 kts | 272° |
| 2026-05-09 13:00 | 41.98846 | -87.75139 | 2699 ft | 169 kts | 272° |
| 2026-05-09 13:00 | 41.98843 | -87.76691 | 2472 ft | 161 kts | 271° |
| 2026-05-09 13:00 | 41.98841 | -87.78138 | 2265 ft | 149 kts | 271° |
| 2026-05-09 13:01 | 41.98839 | -87.79498 | 2063 ft | 141 kts | 270° |
| 2026-05-09 13:01 | 41.98838 | -87.80819 | 1880 ft | 142 kts | 269° |
| 2026-05-09 13:01 | 41.98838 | -87.82124 | 1695 ft | 132 kts | 267° |
| 2026-05-09 13:01 | 41.98835 | -87.83287 | 1511 ft | 121 kts | 266° |
| 2026-05-09 13:02 | 41.98835 | -87.84417 | 1350 ft | 118 kts | 267° |
| 2026-05-09 13:02 | 41.98843 | -87.85508 | 1226 ft | 116 kts | 266° |
| 2026-05-09 13:02 | 41.98842 | -87.86578 | 1077 ft | 114 kts | 265° |
| 2026-05-09 13:02 | 41.98838 | -87.87304 | 983 ft | 121 kts | 264° |
| 2026-05-09 13:03 | 41.98833 | -87.88797 | 730 ft | 118 kts | 266° |
| 2026-05-09 13:03 | 41.98825 | -87.89864 | 667 ft | 106 kts | 273° |
| 2026-05-09 13:03 | 41.98830 | -87.90652 | 670 ft | 66 kts | 270° |
| 2026-05-09 13:03 | 41.98829 | -87.91228 | 667 ft | 55 kts | 270° |
| 2026-05-09 13:04 | 41.98826 | -87.91554 | 667 ft | 49 kts | 268° |
| 2026-05-09 13:04 | 41.98778 | -87.91862 | 668 ft | 15 kts | 243° |
| 2026-05-09 13:04 | 41.98710 | -87.91944 | 669 ft | 13 kts | 171° |
| 2026-05-09 13:04 | 41.98676 | -87.91859 | 669 ft | 11 kts | 117° |
| 2026-05-09 13:05 | 41.98609 | -87.91821 | 670 ft | 11 kts | 181° |
| 2026-05-09 13:05 | 41.98527 | -87.91821 | 669 ft | 13 kts | 180° |
| 2026-05-09 13:05 | 41.98425 | -87.91821 | 668 ft | 16 kts | 180° |
| 2026-05-09 13:05 | 41.98317 | -87.91819 | 669 ft | 12 kts | 168° |
| 2026-05-09 13:06 | 41.98285 | -87.91732 | 670 ft | 12 kts | 82° |
| 2026-05-09 13:06 | 41.98291 | -87.91612 | 669 ft | 13 kts | 93° |
| 2026-05-09 13:06 | 41.98289 | -87.91486 | 669 ft | 14 kts | 90° |
| 2026-05-09 13:06 | 41.98289 | -87.91361 | 670 ft | 13 kts | 89° |
| 2026-05-09 13:07 | 41.98291 | -87.91229 | 668 ft | 17 kts | 90° |
| 2026-05-09 13:07 | 41.98291 | -87.91038 | 668 ft | 22 kts | 90° |
| 2026-05-09 13:07 | 41.98291 | -87.90887 | 668 ft | 14 kts | 91° |
| 2026-05-09 13:07 | 41.98237 | -87.90796 | 669 ft | 13 kts | 165° |
| 2026-05-09 13:08 | 41.98147 | -87.90781 | 669 ft | 13 kts | 175° |
| 2026-05-09 13:08 | 41.98059 | -87.90780 | 669 ft | 13 kts | 189° |
| 2026-05-09 13:08 | 41.97974 | -87.90799 | 670 ft | 12 kts | 189° |
| 2026-05-09 13:08 | 41.97890 | -87.90818 | 670 ft | 13 kts | 189° |
| 2026-05-09 13:09 | 41.97798 | -87.90838 | 670 ft | 14 kts | 191° |
| 2026-05-09 13:09 | 41.97740 | -87.90846 | 670 ft | 7 kts | 163° |
| 2026-05-09 13:09 | 41.97726 | -87.90801 | 670 ft | 6 kts | 101° |
| 2026-05-09 13:09 | 41.97723 | -87.90782 | 670 ft | 1 kts | 102° |
| 2026-05-09 13:10 | 41.97723 | -87.90781 | 670 ft | 0 kts | 102° |